sensor_id;sensor_type;location;lat;lon;timestamp;P1;durP1;ratioP1;P2;durP2;ratioP2
15230;SDS011;32569;51.762;8.564;2023-09-07T00:01:49;4.33;;;3.90;;
15230;SDS011;32569;51.762;8.564;2023-09-07T00:04:19;4.60;;;3.70;;
15230;SDS011;32569;51.762;8.564;2023-09-07T00:06:56;4.23;;;3.83;;
15230;SDS011;32569;51.762;8.564;2023-09-07T00:09:27;5.20;;;3.87;;
15230;SDS011;32569;51.762;8.564;2023-09-07T00:11:53;4.83;;;3.90;;
15230;SDS011;32569;51.762;8.564;2023-09-07T00:14:20;4.30;;;3.90;;
15230;SDS011;32569;51.762;8.564;2023-09-07T00:16:47;4.03;;;3.73;;
15230;SDS011;32569;51.762;8.564;2023-09-07T00:19:14;4.53;;;4.07;;
15230;SDS011;32569;51.762;8.564;2023-09-07T00:21:42;4.47;;;4.07;;
15230;SDS011;32569;51.762;8.564;2023-09-07T00:24:09;4.63;;;4.30;;
15230;SDS011;32569;51.762;8.564;2023-09-07T00:26:35;10.27;;;4.13;;
15230;SDS011;32569;51.762;8.564;2023-09-07T00:29:02;4.73;;;3.80;;
15230;SDS011;32569;51.762;8.564;2023-09-07T00:31:31;4.27;;;3.87;;
15230;SDS011;32569;51.762;8.564;2023-09-07T00:34:01;4.30;;;3.90;;
15230;SDS011;32569;51.762;8.564;2023-09-07T00:36:27;6.27;;;4.47;;
15230;SDS011;32569;51.762;8.564;2023-09-07T00:38:58;4.50;;;3.90;;
15230;SDS011;32569;51.762;8.564;2023-09-07T00:41:25;13.40;;;4.67;;
15230;SDS011;32569;51.762;8.564;2023-09-07T00:43:52;5.57;;;4.30;;
15230;SDS011;32569;51.762;8.564;2023-09-07T00:46:19;4.83;;;4.43;;
15230;SDS011;32569;51.762;8.564;2023-09-07T00:48:49;4.83;;;4.43;;
15230;SDS011;32569;51.762;8.564;2023-09-07T00:51:16;5.90;;;4.63;;
15230;SDS011;32569;51.762;8.564;2023-09-07T00:53:42;5.10;;;4.57;;
15230;SDS011;32569;51.762;8.564;2023-09-07T00:56:14;5.93;;;4.50;;
15230;SDS011;32569;51.762;8.564;2023-09-07T00:58:40;5.23;;;4.73;;
15230;SDS011;32569;51.762;8.564;2023-09-07T01:01:08;5.73;;;4.57;;
15230;SDS011;32569;51.762;8.564;2023-09-07T01:03:34;5.23;;;4.60;;
15230;SDS011;32569;51.762;8.564;2023-09-07T01:06:03;5.50;;;4.47;;
15230;SDS011;32569;51.762;8.564;2023-09-07T01:08:39;4.97;;;4.53;;
15230;SDS011;32569;51.762;8.564;2023-09-07T01:11:17;5.30;;;4.50;;
15230;SDS011;32569;51.762;8.564;2023-09-07T01:13:45;5.87;;;4.73;;
15230;SDS011;32569;51.762;8.564;2023-09-07T01:16:12;5.93;;;4.40;;
15230;SDS011;32569;51.762;8.564;2023-09-07T01:18:39;5.60;;;4.50;;
15230;SDS011;32569;51.762;8.564;2023-09-07T01:21:07;4.80;;;4.40;;
15230;SDS011;32569;51.762;8.564;2023-09-07T01:23:37;5.00;;;4.60;;
15230;SDS011;32569;51.762;8.564;2023-09-07T01:26:05;4.90;;;4.50;;
15230;SDS011;32569;51.762;8.564;2023-09-07T01:28:33;5.53;;;4.80;;
15230;SDS011;32569;51.762;8.564;2023-09-07T01:31:00;7.87;;;4.83;;
15230;SDS011;32569;51.762;8.564;2023-09-07T01:33:27;6.07;;;5.40;;
15230;SDS011;32569;51.762;8.564;2023-09-07T01:36:01;5.97;;;5.47;;
15230;SDS011;32569;51.762;8.564;2023-09-07T01:38:28;5.90;;;5.30;;
15230;SDS011;32569;51.762;8.564;2023-09-07T01:40:59;5.30;;;4.90;;
15230;SDS011;32569;51.762;8.564;2023-09-07T01:43:26;5.73;;;5.13;;
15230;SDS011;32569;51.762;8.564;2023-09-07T01:45:53;5.80;;;5.30;;
15230;SDS011;32569;51.762;8.564;2023-09-07T01:48:19;6.40;;;5.80;;
15230;SDS011;32569;51.762;8.564;2023-09-07T01:50:46;5.30;;;4.80;;
15230;SDS011;32569;51.762;8.564;2023-09-07T01:53:13;5.70;;;5.20;;
15230;SDS011;32569;51.762;8.564;2023-09-07T01:55:39;5.37;;;4.87;;
15230;SDS011;32569;51.762;8.564;2023-09-07T01:58:07;5.60;;;5.03;;
15230;SDS011;32569;51.762;8.564;2023-09-07T02:00:36;6.17;;;5.20;;
15230;SDS011;32569;51.762;8.564;2023-09-07T02:03:03;7.30;;;5.30;;
15230;SDS011;32569;51.762;8.564;2023-09-07T02:05:30;5.63;;;5.13;;
15230;SDS011;32569;51.762;8.564;2023-09-07T02:07:58;5.70;;;4.57;;
15230;SDS011;32569;51.762;8.564;2023-09-07T02:10:24;5.27;;;4.60;;
15230;SDS011;32569;51.762;8.564;2023-09-07T02:12:57;5.43;;;4.93;;
15230;SDS011;32569;51.762;8.564;2023-09-07T02:15:25;5.97;;;5.00;;
15230;SDS011;32569;51.762;8.564;2023-09-07T02:17:52;5.27;;;4.87;;
15230;SDS011;32569;51.762;8.564;2023-09-07T02:20:18;5.90;;;5.20;;
15230;SDS011;32569;51.762;8.564;2023-09-07T02:22:45;6.33;;;5.30;;
15230;SDS011;32569;51.762;8.564;2023-09-07T02:25:12;7.43;;;5.77;;
15230;SDS011;32569;51.762;8.564;2023-09-07T02:27:38;6.30;;;5.80;;
15230;SDS011;32569;51.762;8.564;2023-09-07T02:30:08;6.77;;;5.53;;
15230;SDS011;32569;51.762;8.564;2023-09-07T02:32:37;6.27;;;5.43;;
15230;SDS011;32569;51.762;8.564;2023-09-07T02:35:04;6.30;;;5.70;;
15230;SDS011;32569;51.762;8.564;2023-09-07T02:37:31;5.37;;;4.90;;
15230;SDS011;32569;51.762;8.564;2023-09-07T02:40:01;6.03;;;5.50;;
15230;SDS011;32569;51.762;8.564;2023-09-07T02:42:31;7.27;;;5.23;;
15230;SDS011;32569;51.762;8.564;2023-09-07T02:44:58;5.67;;;5.17;;
15230;SDS011;32569;51.762;8.564;2023-09-07T02:47:25;5.87;;;5.37;;
15230;SDS011;32569;51.762;8.564;2023-09-07T02:49:53;5.77;;;5.37;;
15230;SDS011;32569;51.762;8.564;2023-09-07T02:52:20;5.83;;;5.33;;
15230;SDS011;32569;51.762;8.564;2023-09-07T02:54:47;7.10;;;5.60;;
15230;SDS011;32569;51.762;8.564;2023-09-07T02:57:14;5.83;;;5.27;;
15230;SDS011;32569;51.762;8.564;2023-09-07T02:59:44;6.03;;;5.40;;
15230;SDS011;32569;51.762;8.564;2023-09-07T03:02:11;6.27;;;5.67;;
15230;SDS011;32569;51.762;8.564;2023-09-07T03:04:38;6.13;;;5.60;;
15230;SDS011;32569;51.762;8.564;2023-09-07T03:07:06;7.83;;;5.13;;
15230;SDS011;32569;51.762;8.564;2023-09-07T03:09:32;12.17;;;6.00;;
15230;SDS011;32569;51.762;8.564;2023-09-07T03:11:59;6.13;;;5.23;;
15230;SDS011;32569;51.762;8.564;2023-09-07T03:14:28;6.43;;;5.83;;
15230;SDS011;32569;51.762;8.564;2023-09-07T03:16:55;6.87;;;5.37;;
15230;SDS011;32569;51.762;8.564;2023-09-07T03:19:25;7.47;;;5.73;;
15230;SDS011;32569;51.762;8.564;2023-09-07T03:21:52;9.50;;;5.63;;
15230;SDS011;32569;51.762;8.564;2023-09-07T03:24:20;6.10;;;5.50;;
15230;SDS011;32569;51.762;8.564;2023-09-07T03:26:47;6.47;;;5.33;;
15230;SDS011;32569;51.762;8.564;2023-09-07T03:29:13;7.03;;;6.40;;
15230;SDS011;32569;51.762;8.564;2023-09-07T03:31:40;7.93;;;6.13;;
15230;SDS011;32569;51.762;8.564;2023-09-07T03:34:07;5.80;;;5.30;;
15230;SDS011;32569;51.762;8.564;2023-09-07T03:36:36;6.47;;;5.77;;
15230;SDS011;32569;51.762;8.564;2023-09-07T03:39:03;6.50;;;5.90;;
15230;SDS011;32569;51.762;8.564;2023-09-07T03:41:37;6.23;;;5.63;;
15230;SDS011;32569;51.762;8.564;2023-09-07T03:44:03;8.10;;;5.47;;
15230;SDS011;32569;51.762;8.564;2023-09-07T03:46:31;6.17;;;5.30;;
15230;SDS011;32569;51.762;8.564;2023-09-07T03:48:57;6.40;;;5.70;;
15230;SDS011;32569;51.762;8.564;2023-09-07T03:51:24;6.60;;;5.97;;
15230;SDS011;32569;51.762;8.564;2023-09-07T03:53:51;6.47;;;5.60;;
15230;SDS011;32569;51.762;8.564;2023-09-07T03:56:20;6.67;;;5.90;;
15230;SDS011;32569;51.762;8.564;2023-09-07T03:58:48;8.90;;;7.80;;
15230;SDS011;32569;51.762;8.564;2023-09-07T04:01:15;7.23;;;6.57;;
15230;SDS011;32569;51.762;8.564;2023-09-07T04:03:45;7.43;;;6.50;;
15230;SDS011;32569;51.762;8.564;2023-09-07T04:06:11;6.90;;;6.20;;
15230;SDS011;32569;51.762;8.564;2023-09-07T04:08:38;7.40;;;6.30;;
15230;SDS011;32569;51.762;8.564;2023-09-07T04:11:05;6.80;;;6.20;;
15230;SDS011;32569;51.762;8.564;2023-09-07T04:13:31;7.43;;;6.67;;
15230;SDS011;32569;51.762;8.564;2023-09-07T04:16:00;7.97;;;6.90;;
15230;SDS011;32569;51.762;8.564;2023-09-07T04:18:26;8.87;;;7.07;;
15230;SDS011;32569;51.762;8.564;2023-09-07T04:20:53;10.20;;;6.33;;
15230;SDS011;32569;51.762;8.564;2023-09-07T04:23:29;6.93;;;6.20;;
15230;SDS011;32569;51.762;8.564;2023-09-07T04:26:03;8.13;;;6.40;;
15230;SDS011;32569;51.762;8.564;2023-09-07T04:28:30;6.77;;;6.17;;
15230;SDS011;32569;51.762;8.564;2023-09-07T04:30:57;9.27;;;6.93;;
15230;SDS011;32569;51.762;8.564;2023-09-07T04:33:25;7.43;;;6.73;;
15230;SDS011;32569;51.762;8.564;2023-09-07T04:35:51;8.63;;;5.97;;
15230;SDS011;32569;51.762;8.564;2023-09-07T04:38:18;7.30;;;6.03;;
15230;SDS011;32569;51.762;8.564;2023-09-07T04:40:45;6.63;;;5.93;;
15230;SDS011;32569;51.762;8.564;2023-09-07T04:43:11;8.00;;;5.80;;
15230;SDS011;32569;51.762;8.564;2023-09-07T04:45:45;7.13;;;6.43;;
15230;SDS011;32569;51.762;8.564;2023-09-07T04:48:12;6.63;;;5.97;;
15230;SDS011;32569;51.762;8.564;2023-09-07T04:50:40;9.43;;;6.10;;
15230;SDS011;32569;51.762;8.564;2023-09-07T04:53:07;6.70;;;5.80;;
15230;SDS011;32569;51.762;8.564;2023-09-07T04:55:36;7.63;;;6.67;;
15230;SDS011;32569;51.762;8.564;2023-09-07T04:58:04;8.23;;;6.90;;
15230;SDS011;32569;51.762;8.564;2023-09-07T05:00:32;7.23;;;6.53;;
15230;SDS011;32569;51.762;8.564;2023-09-07T05:02:59;6.87;;;6.23;;
15230;SDS011;32569;51.762;8.564;2023-09-07T05:05:25;7.97;;;7.17;;
15230;SDS011;32569;51.762;8.564;2023-09-07T05:07:53;7.47;;;6.50;;
15230;SDS011;32569;51.762;8.564;2023-09-07T05:10:20;8.57;;;6.80;;
15230;SDS011;32569;51.762;8.564;2023-09-07T05:12:47;8.07;;;7.30;;
15230;SDS011;32569;51.762;8.564;2023-09-07T05:15:13;18.23;;;13.13;;
15230;SDS011;32569;51.762;8.564;2023-09-07T05:17:40;10.73;;;8.50;;
15230;SDS011;32569;51.762;8.564;2023-09-07T05:20:07;11.13;;;8.43;;
15230;SDS011;32569;51.762;8.564;2023-09-07T05:22:35;18.13;;;7.53;;
15230;SDS011;32569;51.762;8.564;2023-09-07T05:25:06;13.60;;;8.00;;
15230;SDS011;32569;51.762;8.564;2023-09-07T05:27:33;11.30;;;8.17;;
15230;SDS011;32569;51.762;8.564;2023-09-07T05:30:00;9.47;;;8.20;;
15230;SDS011;32569;51.762;8.564;2023-09-07T05:32:27;7.73;;;6.93;;
15230;SDS011;32569;51.762;8.564;2023-09-07T05:34:54;8.10;;;7.30;;
15230;SDS011;32569;51.762;8.564;2023-09-07T05:37:20;9.77;;;8.53;;
15230;SDS011;32569;51.762;8.564;2023-09-07T05:39:47;8.20;;;6.90;;
15230;SDS011;32569;51.762;8.564;2023-09-07T05:42:16;14.93;;;10.70;;
15230;SDS011;32569;51.762;8.564;2023-09-07T05:44:42;9.53;;;8.27;;
15230;SDS011;32569;51.762;8.564;2023-09-07T05:47:09;9.00;;;8.10;;
15230;SDS011;32569;51.762;8.564;2023-09-07T05:49:36;8.03;;;7.13;;
15230;SDS011;32569;51.762;8.564;2023-09-07T05:52:02;10.87;;;8.63;;
15230;SDS011;32569;51.762;8.564;2023-09-07T05:54:29;9.23;;;7.77;;
15230;SDS011;32569;51.762;8.564;2023-09-07T05:56:56;10.27;;;7.63;;
15230;SDS011;32569;51.762;8.564;2023-09-07T05:59:24;7.63;;;6.93;;
15230;SDS011;32569;51.762;8.564;2023-09-07T06:01:51;8.27;;;6.87;;
15230;SDS011;32569;51.762;8.564;2023-09-07T06:04:17;9.77;;;7.50;;
15230;SDS011;32569;51.762;8.564;2023-09-07T06:06:45;9.00;;;6.60;;
15230;SDS011;32569;51.762;8.564;2023-09-07T06:09:11;7.80;;;7.00;;
15230;SDS011;32569;51.762;8.564;2023-09-07T06:11:38;8.77;;;6.73;;
15230;SDS011;32569;51.762;8.564;2023-09-07T06:14:05;9.17;;;7.20;;
15230;SDS011;32569;51.762;8.564;2023-09-07T06:16:42;7.73;;;6.00;;
15230;SDS011;32569;51.762;8.564;2023-09-07T06:19:09;10.87;;;7.00;;
15230;SDS011;32569;51.762;8.564;2023-09-07T06:21:36;8.53;;;6.60;;
15230;SDS011;32569;51.762;8.564;2023-09-07T06:24:03;8.13;;;6.80;;
15230;SDS011;32569;51.762;8.564;2023-09-07T06:26:31;10.33;;;7.50;;
15230;SDS011;32569;51.762;8.564;2023-09-07T06:28:58;7.20;;;6.50;;
15230;SDS011;32569;51.762;8.564;2023-09-07T06:31:24;9.23;;;7.03;;
15230;SDS011;32569;51.762;8.564;2023-09-07T06:33:52;9.27;;;7.03;;
15230;SDS011;32569;51.762;8.564;2023-09-07T06:36:19;7.90;;;7.10;;
15230;SDS011;32569;51.762;8.564;2023-09-07T06:38:46;7.87;;;6.60;;
15230;SDS011;32569;51.762;8.564;2023-09-07T06:41:15;9.07;;;6.40;;
15230;SDS011;32569;51.762;8.564;2023-09-07T06:43:42;6.43;;;5.83;;
15230;SDS011;32569;51.762;8.564;2023-09-07T06:46:08;6.37;;;5.77;;
15230;SDS011;32569;51.762;8.564;2023-09-07T06:48:38;7.67;;;5.90;;
15230;SDS011;32569;51.762;8.564;2023-09-07T06:51:06;6.93;;;6.33;;
15230;SDS011;32569;51.762;8.564;2023-09-07T06:53:34;8.13;;;7.27;;
15230;SDS011;32569;51.762;8.564;2023-09-07T06:56:02;8.90;;;6.40;;
15230;SDS011;32569;51.762;8.564;2023-09-07T06:58:29;8.37;;;6.13;;
15230;SDS011;32569;51.762;8.564;2023-09-07T07:00:57;6.70;;;6.00;;
15230;SDS011;32569;51.762;8.564;2023-09-07T07:03:26;6.47;;;5.33;;
15230;SDS011;32569;51.762;8.564;2023-09-07T07:05:53;6.83;;;5.03;;
15230;SDS011;32569;51.762;8.564;2023-09-07T07:08:21;5.93;;;5.43;;
15230;SDS011;32569;51.762;8.564;2023-09-07T07:10:48;6.97;;;5.83;;
15230;SDS011;32569;51.762;8.564;2023-09-07T07:13:15;7.80;;;5.43;;
15230;SDS011;32569;51.762;8.564;2023-09-07T07:15:42;6.50;;;5.03;;
15230;SDS011;32569;51.762;8.564;2023-09-07T07:18:08;6.73;;;5.20;;
15230;SDS011;32569;51.762;8.564;2023-09-07T07:20:36;7.83;;;6.03;;
15230;SDS011;32569;51.762;8.564;2023-09-07T07:23:09;7.27;;;5.40;;
15230;SDS011;32569;51.762;8.564;2023-09-07T07:25:44;5.97;;;5.20;;
15230;SDS011;32569;51.762;8.564;2023-09-07T07:28:12;6.73;;;4.50;;
15230;SDS011;32569;51.762;8.564;2023-09-07T07:30:38;5.20;;;4.63;;
15230;SDS011;32569;51.762;8.564;2023-09-07T07:33:06;9.00;;;4.80;;
15230;SDS011;32569;51.762;8.564;2023-09-07T07:35:33;714.33;;;376.50;;
15230;SDS011;32569;51.762;8.564;2023-09-07T07:38:01;1999.90;;;999.90;;
15230;SDS011;32569;51.762;8.564;2023-09-07T07:40:28;1999.90;;;999.90;;
15230;SDS011;32569;51.762;8.564;2023-09-07T07:42:57;1999.90;;;999.90;;
15230;SDS011;32569;51.762;8.564;2023-09-07T07:45:24;1999.90;;;999.90;;
15230;SDS011;32569;51.762;8.564;2023-09-07T07:47:50;1999.90;;;999.90;;
15230;SDS011;32569;51.762;8.564;2023-09-07T07:50:17;1999.90;;;999.90;;
15230;SDS011;32569;51.762;8.564;2023-09-07T07:52:44;1999.90;;;999.90;;
15230;SDS011;32569;51.762;8.564;2023-09-07T07:55:11;1999.90;;;999.90;;
15230;SDS011;32569;51.762;8.564;2023-09-07T07:57:38;1999.90;;;999.90;;
15230;SDS011;32569;51.762;8.564;2023-09-07T08:00:07;1999.90;;;999.90;;
15230;SDS011;32569;51.762;8.564;2023-09-07T08:02:35;1999.90;;;999.90;;
15230;SDS011;32569;51.762;8.564;2023-09-07T08:05:02;1999.90;;;999.90;;
15230;SDS011;32569;51.762;8.564;2023-09-07T08:07:30;1999.90;;;999.90;;
15230;SDS011;32569;51.762;8.564;2023-09-07T08:09:57;1999.90;;;999.90;;
15230;SDS011;32569;51.762;8.564;2023-09-07T08:12:23;1999.90;;;999.90;;
15230;SDS011;32569;51.762;8.564;2023-09-07T08:14:50;1999.90;;;999.90;;
15230;SDS011;32569;51.762;8.564;2023-09-07T08:17:18;1999.90;;;999.90;;
15230;SDS011;32569;51.762;8.564;2023-09-07T08:19:45;1999.90;;;999.90;;
15230;SDS011;32569;51.762;8.564;2023-09-07T08:22:13;1999.90;;;999.90;;
15230;SDS011;32569;51.762;8.564;2023-09-07T08:24:41;1999.90;;;999.90;;
15230;SDS011;32569;51.762;8.564;2023-09-07T08:27:09;1999.90;;;999.90;;
15230;SDS011;32569;51.762;8.564;2023-09-07T08:29:36;1999.90;;;999.90;;
15230;SDS011;32569;51.762;8.564;2023-09-07T08:32:03;1999.90;;;999.90;;
15230;SDS011;32569;51.762;8.564;2023-09-07T08:34:31;1999.90;;;999.90;;
15230;SDS011;32569;51.762;8.564;2023-09-07T08:37:00;1999.90;;;999.90;;
15230;SDS011;32569;51.762;8.564;2023-09-07T08:39:26;1999.90;;;999.90;;
15230;SDS011;32569;51.762;8.564;2023-09-07T08:41:53;1999.90;;;999.90;;
15230;SDS011;32569;51.762;8.564;2023-09-07T08:44:23;1999.90;;;999.90;;
15230;SDS011;32569;51.762;8.564;2023-09-07T08:46:51;1999.90;;;999.90;;
15230;SDS011;32569;51.762;8.564;2023-09-07T08:49:18;1999.90;;;999.90;;
15230;SDS011;32569;51.762;8.564;2023-09-07T08:51:47;1999.90;;;999.90;;
15230;SDS011;32569;51.762;8.564;2023-09-07T08:54:14;1999.90;;;999.90;;
15230;SDS011;32569;51.762;8.564;2023-09-07T08:56:42;1999.90;;;999.90;;
15230;SDS011;32569;51.762;8.564;2023-09-07T08:59:10;1999.90;;;999.90;;
15230;SDS011;32569;51.762;8.564;2023-09-07T09:01:37;1999.90;;;999.90;;
15230;SDS011;32569;51.762;8.564;2023-09-07T09:04:05;1999.90;;;999.90;;
15230;SDS011;32569;51.762;8.564;2023-09-07T09:06:33;1999.90;;;999.90;;
15230;SDS011;32569;51.762;8.564;2023-09-07T09:09:01;1999.90;;;999.90;;
15230;SDS011;32569;51.762;8.564;2023-09-07T09:11:30;1999.90;;;999.90;;
15230;SDS011;32569;51.762;8.564;2023-09-07T09:13:56;1999.90;;;999.90;;
15230;SDS011;32569;51.762;8.564;2023-09-07T09:16:23;1999.90;;;999.90;;
15230;SDS011;32569;51.762;8.564;2023-09-07T09:18:53;1999.90;;;999.90;;
15230;SDS011;32569;51.762;8.564;2023-09-07T09:21:21;1999.90;;;999.90;;
15230;SDS011;32569;51.762;8.564;2023-09-07T09:23:48;1999.90;;;999.90;;
15230;SDS011;32569;51.762;8.564;2023-09-07T09:26:17;1999.90;;;999.90;;
15230;SDS011;32569;51.762;8.564;2023-09-07T09:28:45;1999.90;;;999.90;;
15230;SDS011;32569;51.762;8.564;2023-09-07T09:31:12;1999.90;;;999.90;;
15230;SDS011;32569;51.762;8.564;2023-09-07T09:33:40;57.50;;;55.47;;
15230;SDS011;32569;51.762;8.564;2023-09-07T09:36:07;1999.90;;;999.90;;
15230;SDS011;32569;51.762;8.564;2023-09-07T09:38:35;6.17;;;4.50;;
15230;SDS011;32569;51.762;8.564;2023-09-07T09:41:02;6.73;;;5.00;;
15230;SDS011;32569;51.762;8.564;2023-09-07T09:43:31;5.60;;;4.40;;
15230;SDS011;32569;51.762;8.564;2023-09-07T09:45:58;4.70;;;4.30;;
15230;SDS011;32569;51.762;8.564;2023-09-07T09:48:26;5.27;;;4.60;;
15230;SDS011;32569;51.762;8.564;2023-09-07T09:50:54;4.80;;;4.30;;
15230;SDS011;32569;51.762;8.564;2023-09-07T09:53:21;4.80;;;4.40;;
15230;SDS011;32569;51.762;8.564;2023-09-07T09:55:51;4.70;;;4.30;;
15230;SDS011;32569;51.762;8.564;2023-09-07T09:58:18;4.67;;;4.03;;
15230;SDS011;32569;51.762;8.564;2023-09-07T10:00:46;5.03;;;4.53;;
15230;SDS011;32569;51.762;8.564;2023-09-07T10:03:16;4.70;;;4.30;;
15230;SDS011;32569;51.762;8.564;2023-09-07T10:05:48;5.23;;;3.93;;
15230;SDS011;32569;51.762;8.564;2023-09-07T10:08:17;4.40;;;4.10;;
15230;SDS011;32569;51.762;8.564;2023-09-07T10:10:46;4.77;;;4.13;;
15230;SDS011;32569;51.762;8.564;2023-09-07T10:13:13;4.47;;;4.00;;
15230;SDS011;32569;51.762;8.564;2023-09-07T10:15:41;5.17;;;4.70;;
15230;SDS011;32569;51.762;8.564;2023-09-07T10:18:10;5.37;;;4.30;;
15230;SDS011;32569;51.762;8.564;2023-09-07T10:20:49;4.50;;;4.13;;
15230;SDS011;32569;51.762;8.564;2023-09-07T10:23:16;5.17;;;4.37;;
15230;SDS011;32569;51.762;8.564;2023-09-07T10:25:47;4.80;;;4.30;;
15230;SDS011;32569;51.762;8.564;2023-09-07T10:28:17;4.67;;;4.20;;
15230;SDS011;32569;51.762;8.564;2023-09-07T10:31:00;4.43;;;4.03;;
15230;SDS011;32569;51.762;8.564;2023-09-07T10:33:31;4.07;;;3.77;;
15230;SDS011;32569;51.762;8.564;2023-09-07T10:35:58;4.33;;;4.03;;
15230;SDS011;32569;51.762;8.564;2023-09-07T10:38:25;4.97;;;4.10;;
15230;SDS011;32569;51.762;8.564;2023-09-07T10:40:55;4.30;;;3.90;;
15230;SDS011;32569;51.762;8.564;2023-09-07T10:43:23;5.27;;;4.33;;
15230;SDS011;32569;51.762;8.564;2023-09-07T10:45:50;5.40;;;4.07;;
15230;SDS011;32569;51.762;8.564;2023-09-07T10:48:17;5.23;;;4.20;;
15230;SDS011;32569;51.762;8.564;2023-09-07T10:50:45;4.57;;;4.17;;
15230;SDS011;32569;51.762;8.564;2023-09-07T10:53:13;6.18;;;4.03;;
15230;SDS011;32569;51.762;8.564;2023-09-07T10:55:40;3.93;;;3.53;;
15230;SDS011;32569;51.762;8.564;2023-09-07T10:58:08;4.67;;;4.13;;
15230;SDS011;32569;51.762;8.564;2023-09-07T11:00:35;5.40;;;3.97;;
15230;SDS011;32569;51.762;8.564;2023-09-07T11:03:06;4.40;;;4.00;;
15230;SDS011;32569;51.762;8.564;2023-09-07T11:05:34;4.60;;;4.03;;
15230;SDS011;32569;51.762;8.564;2023-09-07T11:08:03;5.70;;;4.50;;
15230;SDS011;32569;51.762;8.564;2023-09-07T11:10:32;7.68;;;4.55;;
15230;SDS011;32569;51.762;8.564;2023-09-07T11:13:01;4.60;;;3.70;;
15230;SDS011;32569;51.762;8.564;2023-09-07T11:15:29;4.20;;;3.90;;
15230;SDS011;32569;51.762;8.564;2023-09-07T11:17:56;3.93;;;3.63;;
15230;SDS011;32569;51.762;8.564;2023-09-07T11:20:22;4.17;;;3.60;;
15230;SDS011;32569;51.762;8.564;2023-09-07T11:22:50;5.00;;;4.20;;
15230;SDS011;32569;51.762;8.564;2023-09-07T11:25:19;4.25;;;3.85;;
15230;SDS011;32569;51.762;8.564;2023-09-07T11:27:45;3.67;;;3.30;;
15230;SDS011;32569;51.762;8.564;2023-09-07T11:30:12;4.18;;;3.58;;
15230;SDS011;32569;51.762;8.564;2023-09-07T11:32:39;4.15;;;3.70;;
15230;SDS011;32569;51.762;8.564;2023-09-07T11:35:08;7.25;;;3.40;;
15230;SDS011;32569;51.762;8.564;2023-09-07T11:37:35;6.60;;;5.07;;
15230;SDS011;32569;51.762;8.564;2023-09-07T11:40:03;4.03;;;3.72;;
15230;SDS011;32569;51.762;8.564;2023-09-07T11:42:37;3.63;;;3.33;;
15230;SDS011;32569;51.762;8.564;2023-09-07T11:45:05;4.07;;;3.70;;
15230;SDS011;32569;51.762;8.564;2023-09-07T11:47:34;4.75;;;4.30;;
15230;SDS011;32569;51.762;8.564;2023-09-07T11:50:02;3.83;;;3.50;;
15230;SDS011;32569;51.762;8.564;2023-09-07T11:52:29;4.22;;;3.67;;
15230;SDS011;32569;51.762;8.564;2023-09-07T11:54:56;4.60;;;3.83;;
15230;SDS011;32569;51.762;8.564;2023-09-07T11:57:23;3.88;;;3.05;;
15230;SDS011;32569;51.762;8.564;2023-09-07T11:59:51;3.95;;;3.47;;
15230;SDS011;32569;51.762;8.564;2023-09-07T12:02:18;3.80;;;3.50;;
15230;SDS011;32569;51.762;8.564;2023-09-07T12:04:46;3.92;;;3.40;;
15230;SDS011;32569;51.762;8.564;2023-09-07T12:07:13;4.68;;;3.55;;
15230;SDS011;32569;51.762;8.564;2023-09-07T12:09:40;4.20;;;3.55;;
15230;SDS011;32569;51.762;8.564;2023-09-07T12:12:07;3.95;;;3.55;;
15230;SDS011;32569;51.762;8.564;2023-09-07T12:14:35;4.18;;;3.55;;
15230;SDS011;32569;51.762;8.564;2023-09-07T12:17:04;3.95;;;3.55;;
15230;SDS011;32569;51.762;8.564;2023-09-07T12:19:30;3.70;;;3.40;;
15230;SDS011;32569;51.762;8.564;2023-09-07T12:21:58;4.43;;;3.40;;
15230;SDS011;32569;51.762;8.564;2023-09-07T12:24:24;3.70;;;3.40;;
15230;SDS011;32569;51.762;8.564;2023-09-07T12:26:51;3.70;;;3.40;;
15230;SDS011;32569;51.762;8.564;2023-09-07T12:29:19;4.32;;;3.70;;
15230;SDS011;32569;51.762;8.564;2023-09-07T12:31:51;4.15;;;3.85;;
15230;SDS011;32569;51.762;8.564;2023-09-07T12:34:25;5.15;;;3.90;;
15230;SDS011;32569;51.762;8.564;2023-09-07T12:36:52;4.93;;;3.45;;
15230;SDS011;32569;51.762;8.564;2023-09-07T12:39:18;5.25;;;3.75;;
15230;SDS011;32569;51.762;8.564;2023-09-07T12:41:45;4.68;;;4.20;;
15230;SDS011;32569;51.762;8.564;2023-09-07T12:44:12;3.80;;;3.50;;
15230;SDS011;32569;51.762;8.564;2023-09-07T12:46:39;4.20;;;3.20;;
15230;SDS011;32569;51.762;8.564;2023-09-07T12:49:05;4.20;;;3.80;;
15230;SDS011;32569;51.762;8.564;2023-09-07T12:51:37;4.00;;;3.70;;
15230;SDS011;32569;51.762;8.564;2023-09-07T12:54:04;4.00;;;3.47;;
15230;SDS011;32569;51.762;8.564;2023-09-07T12:56:30;3.97;;;3.60;;
15230;SDS011;32569;51.762;8.564;2023-09-07T12:58:57;4.00;;;3.70;;
15230;SDS011;32569;51.762;8.564;2023-09-07T13:01:30;6.25;;;3.55;;
15230;SDS011;32569;51.762;8.564;2023-09-07T13:03:58;3.95;;;3.60;;
15230;SDS011;32569;51.762;8.564;2023-09-07T13:06:24;3.45;;;3.17;;
15230;SDS011;32569;51.762;8.564;2023-09-07T13:08:52;4.28;;;3.90;;
15230;SDS011;32569;51.762;8.564;2023-09-07T13:11:25;3.97;;;3.53;;
15230;SDS011;32569;51.762;8.564;2023-09-07T13:13:54;5.85;;;3.80;;
15230;SDS011;32569;51.762;8.564;2023-09-07T13:16:21;4.32;;;3.55;;
15230;SDS011;32569;51.762;8.564;2023-09-07T13:18:48;4.95;;;3.80;;
15230;SDS011;32569;51.762;8.564;2023-09-07T13:21:14;3.80;;;3.50;;
15230;SDS011;32569;51.762;8.564;2023-09-07T13:23:41;6.63;;;3.90;;
15230;SDS011;32569;51.762;8.564;2023-09-07T13:26:09;4.88;;;4.07;;
15230;SDS011;32569;51.762;8.564;2023-09-07T13:28:36;4.40;;;3.55;;
15230;SDS011;32569;51.762;8.564;2023-09-07T13:31:03;4.75;;;4.18;;
15230;SDS011;32569;51.762;8.564;2023-09-07T13:33:30;4.00;;;3.67;;
15230;SDS011;32569;51.762;8.564;2023-09-07T13:35:56;4.38;;;3.97;;
15230;SDS011;32569;51.762;8.564;2023-09-07T13:38:23;4.00;;;3.60;;
15230;SDS011;32569;51.762;8.564;2023-09-07T13:40:50;3.90;;;3.60;;
15230;SDS011;32569;51.762;8.564;2023-09-07T13:43:18;4.32;;;3.83;;
15230;SDS011;32569;51.762;8.564;2023-09-07T13:45:44;4.72;;;3.97;;
15230;SDS011;32569;51.762;8.564;2023-09-07T13:48:11;4.47;;;3.95;;
15230;SDS011;32569;51.762;8.564;2023-09-07T13:50:38;5.20;;;4.25;;
15230;SDS011;32569;51.762;8.564;2023-09-07T13:53:05;4.07;;;3.70;;
15230;SDS011;32569;51.762;8.564;2023-09-07T13:55:32;4.22;;;3.88;;
15230;SDS011;32569;51.762;8.564;2023-09-07T13:58:07;5.60;;;3.80;;
15230;SDS011;32569;51.762;8.564;2023-09-07T14:00:38;4.50;;;3.95;;
15230;SDS011;32569;51.762;8.564;2023-09-07T14:03:04;5.30;;;4.20;;
15230;SDS011;32569;51.762;8.564;2023-09-07T14:05:31;4.85;;;4.18;;
15230;SDS011;32569;51.762;8.564;2023-09-07T14:07:58;9.23;;;3.88;;
15230;SDS011;32569;51.762;8.564;2023-09-07T14:10:24;4.35;;;3.95;;
15230;SDS011;32569;51.762;8.564;2023-09-07T14:12:57;4.15;;;3.85;;
15230;SDS011;32569;51.762;8.564;2023-09-07T14:15:24;4.68;;;3.40;;
15230;SDS011;32569;51.762;8.564;2023-09-07T14:17:52;4.07;;;3.63;;
15230;SDS011;32569;51.762;8.564;2023-09-07T14:20:19;3.60;;;3.35;;
15230;SDS011;32569;51.762;8.564;2023-09-07T14:22:45;3.90;;;3.60;;
15230;SDS011;32569;51.762;8.564;2023-09-07T14:25:12;3.60;;;3.28;;
15230;SDS011;32569;51.762;8.564;2023-09-07T14:27:41;4.10;;;3.80;;
15230;SDS011;32569;51.762;8.564;2023-09-07T14:30:08;3.60;;;3.30;;
15230;SDS011;32569;51.762;8.564;2023-09-07T14:32:35;4.05;;;3.40;;
15230;SDS011;32569;51.762;8.564;2023-09-07T14:35:04;3.88;;;3.58;;
15230;SDS011;32569;51.762;8.564;2023-09-07T14:37:34;3.58;;;3.28;;
15230;SDS011;32569;51.762;8.564;2023-09-07T14:40:01;4.35;;;3.95;;
15230;SDS011;32569;51.762;8.564;2023-09-07T14:42:27;3.97;;;3.53;;